Time;durP1;ratioP1;P1;durP2;ratioP2;P2;SDS_P1;SDS_P2;PMS_P1;PMS_P2;Temp;Humidity;BMP_temperature;BMP_pressure;BME280_temperature;BME280_humidity;BME280_pressure;Samples;Min_cycle;Max_cycle;Signal;HPM_P1;HPM_P2
2023/04/26 00:02:03;;;;;;;19.50;5.77;;;20.30;77.00;;;;;;5046297;28;20207;-66
2023/04/26 00:04:31;;;;;;;25.80;6.50;;;20.40;76.20;;;;;;5047314;28;20188;-67
2023/04/26 00:06:59;;;;;;;31.37;6.03;;;20.30;75.90;;;;;;5048022;28;20252;-66
2023/04/26 00:09:26;;;;;;;20.97;5.90;;;20.40;74.60;;;;;;5048949;28;20306;-66
2023/04/26 00:11:54;;;;;;;31.33;5.97;;;20.40;75.20;;;;;;5045932;28;20441;-67
2023/04/26 00:14:21;;;;;;;20.87;5.30;;;20.40;74.50;;;;;;5048005;28;20630;-67
2023/04/26 00:16:48;;;;;;;17.60;5.87;;;20.50;75.20;;;;;;5050759;28;20272;-67
2023/04/26 00:19:16;;;;;;;19.40;4.90;;;20.80;73.60;;;;;;5050096;28;20195;-67
2023/04/26 00:21:44;;;;;;;21.10;4.80;;;21.40;72.70;;;;;;5050391;28;20280;-67
2023/04/26 00:24:11;;;;;;;19.47;3.80;;;21.60;70.60;;;;;;5048231;28;20237;-65
2023/04/26 00:26:38;;;;;;;20.37;4.57;;;21.70;69.90;;;;;;5042984;28;20173;-65
2023/04/26 00:29:06;;;;;;;15.23;4.10;;;21.80;68.60;;;;;;5047867;28;20609;-65
2023/04/26 00:31:33;;;;;;;19.87;4.97;;;21.90;66.90;;;;;;5042815;28;20303;-65
2023/04/26 00:34:00;;;;;;;17.90;4.80;;;21.70;69.30;;;;;;5050285;28;20578;-65
2023/04/26 00:36:28;;;;;;;24.57;5.40;;;21.80;68.20;;;;;;5046683;28;20199;-66
2023/04/26 00:38:56;;;;;;;12.90;4.07;;;21.90;68.40;;;;;;5046134;28;20181;-67
2023/04/26 00:41:23;;;;;;;15.70;4.10;;;22.00;67.00;;;;;;5050490;28;20187;-66
2023/04/26 00:43:54;;;;;;;12.97;3.87;;;22.10;67.60;;;;;;5047261;28;20553;-65
2023/04/26 00:46:22;;;;;;;18.57;4.37;;;21.80;67.50;;;;;;5048563;28;20717;-65
2023/04/26 00:48:51;;;;;;;16.40;3.67;;;21.70;68.40;;;;;;5049323;28;20179;-65
2023/04/26 00:51:18;;;;;;;16.80;4.33;;;21.60;67.90;;;;;;5046136;28;20883;-65
2023/04/26 00:53:45;;;;;;;15.57;4.20;;;21.70;68.30;;;;;;5050606;28;20191;-66
2023/04/26 00:56:14;;;;;;;22.27;4.57;;;21.70;68.60;;;;;;5049199;28;20176;-66
2023/04/26 00:58:41;;;;;;;12.97;4.20;;;21.80;68.10;;;;;;5047718;28;20274;-66
2023/04/26 01:01:08;;;;;;;21.23;5.73;;;21.90;68.30;;;;;;5039027;28;20238;-67
2023/04/26 01:03:36;;;;;;;24.33;8.80;;;22.10;68.20;;;;;;5050297;28;20221;-67
2023/04/26 01:06:03;;;;;;;15.80;4.83;;;22.40;67.10;;;;;;5049176;28;20195;-67
2023/04/26 01:08:31;;;;;;;13.93;3.10;;;22.50;67.00;;;;;;5047580;28;20588;-67
2023/04/26 01:10:59;;;;;;;14.17;3.17;;;22.50;65.80;;;;;;5047048;28;20184;-65
2023/04/26 01:13:26;;;;;;;9.73;2.87;;;22.50;65.80;;;;;;5047123;28;20279;-66
2023/04/26 01:15:55;;;;;;;12.47;2.73;;;22.40;65.40;;;;;;5048927;28;20801;-65
2023/04/26 01:18:23;;;;;;;15.00;3.33;;;22.40;66.00;;;;;;5050345;28;20753;-66
2023/04/26 01:20:52;;;;;;;15.10;3.17;;;22.40;66.20;;;;;;5047282;28;20180;-66
2023/04/26 01:23:19;;;;;;;9.83;2.67;;;22.40;66.10;;;;;;5049560;28;20214;-65
2023/04/26 01:25:47;;;;;;;14.53;2.87;;;22.30;66.40;;;;;;5042132;28;20194;-67
2023/04/26 01:28:14;;;;;;;15.17;3.57;;;22.00;67.20;;;;;;5050377;28;20681;-66
2023/04/26 01:30:42;;;;;;;12.43;4.93;;;22.20;67.20;;;;;;5047048;28;20184;-67
2023/04/26 01:33:10;;;;;;;13.77;4.47;;;22.30;66.70;;;;;;5043290;28;20219;-66
2023/04/26 01:35:37;;;;;;;13.77;3.70;;;22.20;67.20;;;;;;5042815;28;20273;-66
2023/04/26 01:38:05;;;;;;;9.10;2.50;;;22.20;66.80;;;;;;5048293;28;20253;-65
2023/04/26 01:40:32;;;;;;;16.10;2.93;;;22.10;67.10;;;;;;5048748;28;20176;-65
2023/04/26 01:43:02;;;;;;;15.07;2.47;;;22.00;67.10;;;;;;5047503;28;20184;-65
2023/04/26 01:45:29;;;;;;;9.33;2.60;;;22.00;67.80;;;;;;5050636;28;20188;-66
2023/04/26 01:47:57;;;;;;;17.60;2.93;;;22.00;67.70;;;;;;5051468;28;20253;-66
2023/04/26 01:50:24;;;;;;;9.57;2.90;;;21.90;67.60;;;;;;5049902;28;20194;-65
2023/04/26 01:52:52;;;;;;;15.73;3.27;;;22.00;68.10;;;;;;5051417;28;20665;-65
2023/04/26 01:55:19;;;;;;;12.40;2.93;;;22.00;68.40;;;;;;5051749;28;20258;-67
2023/04/26 01:57:47;;;;;;;15.50;3.17;;;21.80;68.10;;;;;;5052903;28;20229;-66
2023/04/26 02:00:14;;;;;;;13.13;2.53;;;21.80;68.60;;;;;;5052835;28;20188;-67
2023/04/26 02:02:41;;;;;;;12.80;2.47;;;21.70;68.80;;;;;;5052815;28;20529;-66
2023/04/26 02:05:11;;;;;;;13.20;2.57;;;21.70;68.70;;;;;;5051371;28;20701;-67
2023/04/26 02:07:38;;;;;;;12.93;2.93;;;21.70;68.90;;;;;;5047767;28;20183;-67
2023/04/26 02:10:06;;;;;;;10.20;3.00;;;21.70;68.50;;;;;;5052222;28;20228;-66
2023/04/26 02:12:34;;;;;;;14.00;3.13;;;21.80;68.50;;;;;;5044404;28;20215;-66
2023/04/26 02:15:01;;;;;;;11.27;2.90;;;22.00;68.50;;;;;;5046799;28;20198;-66
2023/04/26 02:17:28;;;;;;;18.77;3.33;;;21.70;70.70;;;;;;5052310;28;20176;-67
2023/04/26 02:19:56;;;;;;;11.73;2.83;;;21.60;71.30;;;;;;5047947;28;20181;-67
2023/04/26 02:22:26;;;;;;;18.70;5.53;;;21.60;71.70;;;;;;5049759;28;20202;-66
2023/04/26 02:24:54;;;;;;;13.03;4.07;;;21.60;71.30;;;;;;5050728;28;20639;-67
2023/04/26 02:27:21;;;;;;;18.80;4.57;;;21.50;72.90;;;;;;5051265;28;20187;-66
2023/04/26 02:29:48;;;;;;;16.20;3.70;;;21.50;72.90;;;;;;5049250;28;20188;-66
2023/04/26 02:32:16;;;;;;;16.43;2.73;;;21.50;73.00;;;;;;5047329;28;20228;-66
2023/04/26 02:34:43;;;;;;;12.27;3.20;;;21.50;73.10;;;;;;5052782;28;20198;-67
2023/04/26 02:37:11;;;;;;;10.80;2.83;;;21.50;72.80;;;;;;5046408;28;20179;-65
2023/04/26 02:39:38;;;;;;;12.00;2.80;;;21.50;72.90;;;;;;5051556;28;20175;-65
2023/04/26 02:42:09;;;;;;;11.27;3.53;;;21.50;72.60;;;;;;5051875;28;20188;-65
2023/04/26 02:44:38;;;;;;;13.63;3.33;;;21.80;72.80;;;;;;5051906;28;20175;-65
2023/04/26 02:47:05;;;;;;;12.27;4.00;;;22.10;71.30;;;;;;5050934;28;20325;-66
2023/04/26 02:49:32;;;;;;;9.63;2.80;;;22.30;70.00;;;;;;5052543;28;20601;-65
2023/04/26 02:52:00;;;;;;;12.20;2.93;;;22.30;68.80;;;;;;5050854;28;20287;-65
2023/04/26 02:54:27;;;;;;;13.73;2.97;;;22.20;70.40;;;;;;5049449;28;20269;-67
2023/04/26 02:56:55;;;;;;;11.10;2.87;;;22.50;69.10;;;;;;5051434;28;20204;-65
2023/04/26 02:59:22;;;;;;;12.23;2.80;;;22.40;69.80;;;;;;5050399;28;20196;-65
2023/04/26 03:01:49;;;;;;;13.23;3.03;;;22.40;69.50;;;;;;5051915;28;20188;-66
2023/04/26 03:04:17;;;;;;;12.93;2.93;;;22.50;69.10;;;;;;5050826;28;20192;-67
2023/04/26 03:06:44;;;;;;;9.87;2.53;;;22.30;69.20;;;;;;5056565;28;20212;-66
2023/04/26 03:09:12;;;;;;;148.50;10.73;;;22.30;69.40;;;;;;5050864;28;20223;-67
2023/04/26 03:11:39;;;;;;;20.50;3.90;;;22.40;68.50;;;;;;5051132;28;20247;-66
2023/04/26 03:14:06;;;;;;;21.57;3.37;;;22.40;68.70;;;;;;5048307;28;20190;-66
2023/04/26 03:16:42;;;;;;;14.70;2.57;;;22.30;69.10;;;;;;5045448;28;20298;-67
2023/04/26 03:19:09;;;;;;;12.27;5.90;;;22.20;69.30;;;;;;5050958;28;20183;-66
2023/04/26 03:21:36;;;;;;;13.13;3.57;;;22.20;69.90;;;;;;5050903;28;20176;-66
2023/04/26 03:24:04;;;;;;;13.53;4.77;;;22.20;68.70;;;;;;5050928;28;20191;-66
2023/04/26 03:26:31;;;;;;;13.37;2.70;;;22.00;68.70;;;;;;5040898;28;20602;-67
2023/04/26 03:28:59;;;;;;;13.57;3.10;;;22.00;68.10;;;;;;5046196;28;20283;-67
2023/04/26 03:31:26;;;;;;;8.57;2.33;;;21.90;69.20;;;;;;5051562;28;20770;-66
2023/04/26 03:33:53;;;;;;;9.73;2.60;;;21.80;68.80;;;;;;5051937;28;20222;-67
2023/04/26 03:36:21;;;;;;;11.20;2.33;;;21.80;69.60;;;;;;5051478;28;20176;-67
2023/04/26 03:38:48;;;;;;;11.80;2.70;;;21.80;69.30;;;;;;5051818;28;20176;-67
2023/04/26 03:41:15;;;;;;;17.77;2.90;;;21.80;68.90;;;;;;5050388;28;20204;-67
2023/04/26 03:43:43;;;;;;;9.33;2.47;;;22.00;68.20;;;;;;5051634;28;20230;-67
2023/04/26 03:46:10;;;;;;;9.27;2.40;;;21.90;67.70;;;;;;5051390;28;20543;-67
2023/04/26 03:48:37;;;;;;;9.83;2.27;;;21.90;68.10;;;;;;5051976;28;20241;-67
2023/04/26 03:51:05;;;;;;;14.90;2.50;;;22.00;68.10;;;;;;5049251;28;20226;-67
2023/04/26 03:53:32;;;;;;;10.00;2.50;;;22.20;66.70;;;;;;5051533;28;20739;-67
2023/04/26 03:56:00;;;;;;;11.33;2.80;;;22.10;66.30;;;;;;5051554;28;20191;-65
2023/04/26 03:58:27;;;;;;;13.00;2.40;;;22.20;66.30;;;;;;5046048;28;20271;-67
2023/04/26 04:00:57;;;;;;;8.67;1.80;;;22.30;65.90;;;;;;5051309;28;20179;-66
2023/04/26 04:03:25;;;;;;;12.33;2.40;;;22.20;65.30;;;;;;5051676;28;20192;-67
2023/04/26 04:05:52;;;;;;;15.87;2.20;;;22.20;65.40;;;;;;5050404;28;20184;-67
2023/04/26 04:08:19;;;;;;;15.90;2.53;;;22.10;65.30;;;;;;5051271;28;20283;-67
2023/04/26 04:10:47;;;;;;;10.50;1.87;;;22.10;65.20;;;;;;5051579;28;20688;-66
2023/04/26 04:13:14;;;;;;;11.27;2.50;;;22.10;65.30;;;;;;5046905;28;20277;-66
2023/04/26 04:15:41;;;;;;;10.70;1.97;;;22.10;65.10;;;;;;5051059;28;20203;-67
2023/04/26 04:18:09;;;;;;;12.67;2.40;;;22.10;64.70;;;;;;5051123;28;20188;-67
2023/04/26 04:20:37;;;;;;;12.03;1.93;;;22.10;64.10;;;;;;5048891;28;20188;-67
2023/04/26 04:23:06;;;;;;;9.90;1.77;;;22.10;64.20;;;;;;5050092;28;20703;-67
2023/04/26 04:25:34;;;;;;;9.73;2.00;;;22.20;64.30;;;;;;5051190;28;20242;-66
2023/04/26 04:28:02;;;;;;;9.10;1.80;;;22.20;64.20;;;;;;5051433;28;20184;-68
2023/04/26 04:30:30;;;;;;;9.53;2.07;;;22.30;63.80;;;;;;5041150;28;20651;-66
2023/04/26 04:32:58;;;;;;;7.37;1.97;;;22.20;64.50;;;;;;5051081;28;20249;-67
2023/04/26 04:35:32;;;;;;;8.97;1.97;;;22.20;65.40;;;;;;5050234;28;20338;-65
2023/04/26 04:38:00;;;;;;;11.00;2.00;;;22.30;65.30;;;;;;5048789;28;20277;-65
2023/04/26 04:40:28;;;;;;;10.13;1.77;;;22.00;66.60;;;;;;5046535;28;20176;-67
2023/04/26 04:42:55;;;;;;;11.00;2.13;;;21.90;67.80;;;;;;5048288;28;20246;-67
2023/04/26 04:45:26;;;;;;;11.50;2.10;;;22.00;68.60;;;;;;5045352;28;20191;-67
2023/04/26 04:47:53;;;;;;;8.93;2.13;;;22.10;69.60;;;;;;5047356;28;20195;-67
2023/04/26 04:50:22;;;;;;;12.93;2.63;;;22.20;70.20;;;;;;5050245;28;20183;-67
2023/04/26 04:52:49;;;;;;;13.47;2.40;;;22.30;70.00;;;;;;5050544;28;20238;-67
2023/04/26 04:55:17;;;;;;;11.13;2.50;;;22.40;70.10;;;;;;5050433;28;20191;-67
2023/04/26 04:57:44;;;;;;;5.30;1.60;;;22.80;69.30;;;;;;5049223;28;20682;-67
2023/04/26 05:00:13;;;;;;;11.47;1.93;;;23.10;67.80;;;;;;5048772;28;20200;-67
2023/04/26 05:02:40;;;;;;;9.50;2.10;;;23.60;66.60;;;;;;5050290;28;20274;-68
2023/04/26 05:05:08;;;;;;;11.90;2.23;;;23.50;65.50;;;;;;5047771;28;20188;-67
2023/04/26 05:07:35;;;;;;;8.57;2.23;;;23.80;64.40;;;;;;5046686;28;20189;-67
2023/04/26 05:10:03;;;;;;;8.07;2.00;;;23.70;65.10;;;;;;5047377;28;20224;-68
2023/04/26 05:12:32;;;;;;;8.10;1.80;;;23.60;64.90;;;;;;5050357;28;20227;-67
2023/04/26 05:14:59;;;;;;;13.70;2.07;;;23.40;64.90;;;;;;5050299;28;20187;-67
2023/04/26 05:17:27;;;;;;;8.00;2.00;;;23.30;65.30;;;;;;5052143;28;20191;-66
2023/04/26 05:19:54;;;;;;;9.17;2.03;;;23.50;64.60;;;;;;5054327;28;20190;-67
2023/04/26 05:22:22;;;;;;;9.30;2.03;;;23.80;64.70;;;;;;5052937;28;20712;-67
2023/04/26 05:24:49;;;;;;;7.47;2.00;;;24.30;62.40;;;;;;5052203;28;20184;-68
2023/04/26 05:27:16;;;;;;;7.90;1.80;;;24.80;61.40;;;;;;5053877;28;20184;-67
2023/04/26 05:29:44;;;;;;;4.97;1.43;;;25.10;59.50;;;;;;5055031;28;20184;-67
2023/04/26 05:32:12;;;;;;;5.80;1.73;;;24.40;62.10;;;;;;5053588;28;20238;-67
2023/04/26 05:34:40;;;;;;;7.50;1.73;;;23.90;62.60;;;;;;5053992;28;20191;-67
2023/04/26 05:37:07;;;;;;;9.73;2.03;;;23.80;63.10;;;;;;5052464;28;20192;-67
2023/04/26 05:39:34;;;;;;;11.50;2.60;;;24.10;62.70;;;;;;5052446;28;20188;-66
2023/04/26 05:42:02;;;;;;;8.47;2.00;;;23.80;63.20;;;;;;5053955;28;20187;-66
2023/04/26 05:44:29;;;;;;;6.30;1.50;;;24.10;61.70;;;;;;5053203;28;20180;-66
2023/04/26 05:46:57;;;;;;;8.83;1.87;;;24.20;61.80;;;;;;5053005;28;20187;-67
2023/04/26 05:49:24;;;;;;;7.33;1.60;;;24.10;61.10;;;;;;5053476;28;20187;-68
2023/04/26 05:51:51;;;;;;;11.37;2.10;;;24.30;61.30;;;;;;5050022;28;20233;-68
2023/04/26 05:54:19;;;;;;;9.17;1.47;;;24.50;60.70;;;;;;5053515;28;20505;-67
2023/04/26 05:56:46;;;;;;;9.17;2.00;;;24.80;61.10;;;;;;5052849;28;20214;-67
2023/04/26 05:59:13;;;;;;;9.03;1.87;;;24.30;60.40;;;;;;5052543;28;20202;-67
2023/04/26 06:01:41;;;;;;;9.73;2.33;;;23.80;61.80;;;;;;5053394;28;20188;-66
2023/04/26 06:04:08;;;;;;;7.00;1.90;;;23.30;64.10;;;;;;5051428;28;20180;-67
2023/04/26 06:06:35;;;;;;;7.33;1.73;;;23.70;63.20;;;;;;5050994;28;20673;-66
2023/04/26 06:09:03;;;;;;;8.83;2.40;;;24.10;62.70;;;;;;5050282;28;20216;-66
2023/04/26 06:11:30;;;;;;;8.70;2.10;;;24.80;60.50;;;;;;5050150;28;20372;-65
2023/04/26 06:13:58;;;;;;;8.87;2.03;;;25.10;58.80;;;;;;5048986;28;20187;-64
2023/04/26 06:16:25;;;;;;;6.80;2.07;;;24.30;60.60;;;;;;5049657;28;20184;-66
2023/04/26 06:18:52;;;;;;;13.70;2.20;;;23.30;63.80;;;;;;5051226;28;20179;-65
2023/04/26 06:21:20;;;;;;;7.80;2.10;;;22.80;65.40;;;;;;5052143;28;20184;-66
2023/04/26 06:23:47;;;;;;;10.47;1.87;;;22.30;67.30;;;;;;5051971;28;20266;-65
2023/04/26 06:26:14;;;;;;;6.43;1.70;;;22.20;68.50;;;;;;5051791;28;20908;-67
2023/04/26 06:28:42;;;;;;;8.03;2.13;;;22.00;69.20;;;;;;5050629;28;20199;-65
2023/04/26 06:31:09;;;;;;;7.27;1.77;;;21.90;69.50;;;;;;5048474;28;20191;-65
2023/04/26 06:33:36;;;;;;;8.20;1.77;;;21.80;69.90;;;;;;5051785;28;20222;-65
2023/04/26 06:36:04;;;;;;;9.77;2.00;;;21.70;70.00;;;;;;5050620;28;20184;-66
2023/04/26 06:38:31;;;;;;;10.97;2.40;;;21.60;70.50;;;;;;5047862;28;20295;-65
2023/04/26 06:40:58;;;;;;;10.90;2.07;;;21.50;70.50;;;;;;5051513;28;20187;-67
2023/04/26 06:43:26;;;;;;;11.40;2.20;;;21.40;70.60;;;;;;5052072;28;20241;-66
2023/04/26 06:45:53;;;;;;;7.90;2.10;;;21.30;70.80;;;;;;5051892;28;20215;-66
2023/04/26 06:48:21;;;;;;;7.47;2.10;;;21.20;71.20;;;;;;5050809;28;21084;-66
2023/04/26 06:50:48;;;;;;;8.37;2.10;;;21.10;71.70;;;;;;5050868;28;20271;-67
2023/04/26 06:53:15;;;;;;;8.97;1.60;;;21.10;71.90;;;;;;5049752;28;20249;-65
2023/04/26 06:55:43;;;;;;;13.67;2.17;;;21.00;72.20;;;;;;5050319;28;20184;-65
2023/04/26 06:58:10;;;;;;;11.30;2.17;;;20.90;72.90;;;;;;5049905;28;20180;-66
2023/04/26 07:00:38;;;;;;;12.80;2.03;;;20.80;73.30;;;;;;5050942;28;20263;-65
2023/04/26 07:03:05;;;;;;;10.80;2.00;;;20.80;73.70;;;;;;5048408;28;20186;-65
2023/04/26 07:05:32;;;;;;;9.87;2.13;;;20.70;74.10;;;;;;5051298;28;20195;-65
2023/04/26 07:08:00;;;;;;;10.63;2.03;;;20.60;74.70;;;;;;5049469;28;20191;-66
2023/04/26 07:10:27;;;;;;;12.47;2.30;;;20.50;75.10;;;;;;5049033;28;20626;-67
2023/04/26 07:12:54;;;;;;;8.97;1.97;;;20.40;75.40;;;;;;5050045;28;20215;-66
2023/04/26 07:15:22;;;;;;;8.63;2.50;;;20.30;75.70;;;;;;5049084;28;20207;-66
2023/04/26 07:17:49;;;;;;;9.30;1.87;;;20.30;76.10;;;;;;5049209;28;20188;-67
2023/04/26 07:20:19;;;;;;;9.90;2.03;;;20.30;76.50;;;;;;5044916;28;20191;-66
2023/04/26 07:22:47;;;;;;;9.37;1.97;;;20.30;76.80;;;;;;5049616;28;20493;-66
2023/04/26 07:25:14;;;;;;;8.73;2.07;;;20.20;77.00;;;;;;5046114;28;20254;-66
2023/04/26 07:27:42;;;;;;;13.23;2.20;;;20.10;77.50;;;;;;5049709;28;20267;-67
2023/04/26 07:30:10;;;;;;;8.53;2.00;;;20.00;77.80;;;;;;5051066;28;20188;-65
2023/04/26 07:32:37;;;;;;;10.43;2.23;;;20.00;78.10;;;;;;5049276;28;20219;-65
2023/04/26 07:35:07;;;;;;;12.20;2.23;;;19.90;78.40;;;;;;5046515;28;20562;-64
2023/04/26 07:37:35;;;;;;;8.00;1.90;;;19.90;78.40;;;;;;5046503;28;20231;-66
2023/04/26 07:40:03;;;;;;;11.23;2.00;;;19.80;78.60;;;;;;5047852;28;20195;-65
2023/04/26 07:42:31;;;;;;;13.47;2.17;;;19.80;78.40;;;;;;5049440;28;20658;-65
2023/04/26 07:44:58;;;;;;;8.97;1.77;;;19.90;78.50;;;;;;5047049;28;20207;-67
2023/04/26 07:47:27;;;;;;;8.70;1.90;;;19.80;78.30;;;;;;5048218;28;20723;-66
2023/04/26 07:49:54;;;;;;;12.77;2.20;;;19.80;78.40;;;;;;5045744;28;20253;-67
2023/04/26 07:52:22;;;;;;;13.83;2.30;;;19.80;78.40;;;;;;5049234;28;20239;-66
2023/04/26 07:54:49;;;;;;;9.10;2.27;;;19.80;78.50;;;;;;5049587;28;20183;-67
2023/04/26 07:57:16;;;;;;;11.10;2.30;;;19.80;78.60;;;;;;5049222;28;20267;-65
2023/04/26 07:59:44;;;;;;;10.73;2.10;;;19.80;78.60;;;;;;5049325;28;20180;-66
2023/04/26 08:02:11;;;;;;;11.47;2.53;;;19.80;78.50;;;;;;5048923;28;20183;-66
2023/04/26 08:04:38;;;;;;;9.70;2.40;;;19.80;78.30;;;;;;5047051;28;20180;-66
2023/04/26 08:07:05;;;;;;;10.30;2.20;;;19.80;78.60;;;;;;5044557;28;20191;-67
2023/04/26 08:09:33;;;;;;;12.77;2.33;;;19.70;78.70;;;;;;5048579;28;20318;-66
2023/04/26 08:12:00;;;;;;;15.27;2.40;;;19.70;78.10;;;;;;5048239;28;20215;-66
2023/04/26 08:14:29;;;;;;;10.07;3.17;;;19.80;77.40;;;;;;5047190;28;20195;-66
2023/04/26 08:16:56;;;;;;;13.03;3.90;;;19.80;77.30;;;;;;5045392;28;20196;-67
2023/04/26 08:19:25;;;;;;;10.43;2.03;;;19.80;76.80;;;;;;5045463;28;20187;-68
2023/04/26 08:21:52;;;;;;;13.70;2.70;;;19.80;76.70;;;;;;5049558;28;20634;-66
2023/04/26 08:24:20;;;;;;;12.63;2.73;;;19.80;76.50;;;;;;5050170;28;20227;-66
2023/04/26 08:26:47;;;;;;;9.17;2.20;;;19.80;76.30;;;;;;5050906;28;20192;-67
2023/04/26 08:29:15;;;;;;;12.07;2.47;;;19.80;76.30;;;;;;5048322;28;20188;-67
2023/04/26 08:31:42;;;;;;;9.70;2.27;;;19.80;76.40;;;;;;5050453;28;20207;-65
2023/04/26 08:34:12;;;;;;;7.60;1.90;;;19.90;76.50;;;;;;5051046;28;20271;-65
2023/04/26 08:36:43;;;;;;;9.80;2.70;;;19.90;76.60;;;;;;5051468;28;20180;-66
2023/04/26 08:39:11;;;;;;;12.00;2.70;;;19.80;76.70;;;;;;5049140;28;20256;-67
2023/04/26 08:41:44;;;;;;;8.17;2.00;;;19.80;77.00;;;;;;5046375;28;20225;-67
2023/04/26 08:44:12;;;;;;;9.33;2.10;;;19.90;76.80;;;;;;5050536;28;20638;-67
2023/04/26 08:47:07;;;;;;;15.97;2.70;;;19.90;76.40;;;;;;5048356;28;20247;-67
2023/04/26 08:49:42;;;;;;;10.13;2.33;;;20.00;76.30;;;;;;5044719;28;20601;-68
2023/04/26 08:52:11;;;;;;;11.53;3.23;;;20.10;76.10;;;;;;5051701;28;20233;-67
2023/04/26 08:54:40;;;;;;;12.77;2.50;;;20.00;76.20;;;;;;5050916;28;20184;-66
2023/04/26 08:57:08;;;;;;;12.27;2.20;;;20.10;76.20;;;;;;5052712;28;20187;-67
2023/04/26 08:59:39;;;;;;;9.53;2.13;;;20.10;76.20;;;;;;5054701;28;20641;-68
2023/04/26 09:02:07;;;;;;;11.70;2.37;;;20.10;76.30;;;;;;5048924;28;20183;-67
2023/04/26 09:04:35;;;;;;;6.33;2.23;;;20.20;76.20;;;;;;5054245;28;20480;-67
2023/04/26 09:07:03;;;;;;;12.40;2.27;;;20.30;75.80;;;;;;5053288;28;20188;-67
2023/04/26 09:09:41;;;;;;;10.97;2.40;;;20.30;75.90;;;;;;5053765;28;20578;-67
2023/04/26 09:12:08;;;;;;;9.70;1.93;;;20.40;75.80;;;;;;5053836;28;20230;-67
2023/04/26 09:14:38;;;;;;;10.13;2.20;;;20.40;75.80;;;;;;5051532;28;20241;-67
2023/04/26 09:17:05;;;;;;;9.63;2.17;;;20.30;75.70;;;;;;5046288;28;20222;-67
2023/04/26 09:19:41;;;;;;;10.30;2.17;;;20.30;75.70;;;;;;5052054;28;20228;-67
2023/04/26 09:22:10;;;;;;;12.97;2.37;;;20.30;75.70;;;;;;5047232;28;20176;-67
2023/04/26 09:24:53;;;;;;;9.27;2.97;;;20.30;76.00;;;;;;5052776;28;20615;-70
2023/04/26 09:27:21;;;;;;;9.90;2.03;;;20.30;76.30;;;;;;5053651;28;20223;-67
2023/04/26 09:30:19;;;;;;;10.67;1.93;;;20.20;76.40;;;;;;5049105;28;20607;-67
2023/04/26 09:33:03;;;;;;;8.13;2.00;;;20.20;76.40;;;;;;5049130;28;20345;-67
2023/04/26 09:35:33;;;;;;;11.97;2.53;;;20.10;76.70;;;;;;5054464;28;20234;-67
2023/04/26 09:38:08;;;;;;;8.60;1.97;;;20.00;76.90;;;;;;5049893;28;20203;-66
2023/04/26 09:40:41;;;;;;;10.77;2.43;;;20.00;77.00;;;;;;5050364;28;20262;-66
2023/04/26 09:43:11;;;;;;;14.17;2.20;;;20.00;77.40;;;;;;5053776;28;20184;-67
2023/04/26 09:45:53;;;;;;;14.73;2.53;;;20.00;77.60;;;;;;5049101;28;20276;-67
2023/04/26 09:48:29;;;;;;;11.63;2.20;;;19.90;77.70;;;;;;5050649;28;20226;-66
2023/04/26 09:50:58;;;;;;;12.57;2.00;;;19.90;77.80;;;;;;5049287;28;20204;-67
2023/04/26 09:53:30;;;;;;;14.67;2.57;;;19.90;77.90;;;;;;5049233;28;20681;-66
2023/04/26 09:56:18;;;;;;;12.23;2.33;;;19.90;77.80;;;;;;5053037;28;20184;-66
2023/04/26 09:58:59;;;;;;;8.30;1.97;;;19.90;77.80;;;;;;5052461;28;20231;-66
2023/04/26 10:01:32;;;;;;;7.37;1.80;;;20.00;77.40;;;;;;5053500;28;20187;-66
2023/04/26 10:04:03;;;;;;;8.47;1.77;;;20.00;77.60;;;;;;5046120;28;20209;-67
2023/04/26 10:06:31;;;;;;;8.93;2.00;;;20.00;77.70;;;;;;5053360;28;20283;-67
2023/04/26 10:09:01;;;;;;;12.93;2.60;;;20.00;78.00;;;;;;5052889;28;20216;-67
2023/04/26 10:11:29;;;;;;;9.40;2.47;;;19.90;78.90;;;;;;5049112;28;20206;-67
2023/04/26 10:13:57;;;;;;;11.97;2.13;;;19.80;79.40;;;;;;5050534;28;20198;-66
2023/04/26 10:16:25;;;;;;;8.50;2.10;;;19.80;80.40;;;;;;5045742;28;20188;-67
2023/04/26 10:18:52;;;;;;;11.03;2.40;;;19.70;80.30;;;;;;5051044;28;20226;-65
2023/04/26 10:21:30;;;;;;;10.50;2.30;;;19.70;80.90;;;;;;5049550;28;20172;-67
2023/04/26 10:24:00;;;;;;;9.63;2.00;;;19.60;80.90;;;;;;5048967;28;20650;-66
2023/04/26 10:26:56;;;;;;;13.30;2.47;;;19.60;81.10;;;;;;5052292;28;20187;-66
2023/04/26 10:29:24;;;;;;;12.03;1.80;;;19.50;81.10;;;;;;5051856;28;20639;-67
2023/04/26 10:32:15;;;;;;;10.97;2.43;;;19.50;81.20;;;;;;5042563;28;20258;-66
2023/04/26 10:34:42;;;;;;;9.40;2.10;;;19.50;81.00;;;;;;5052737;28;20208;-67
2023/04/26 10:37:14;;;;;;;13.13;2.10;;;19.50;80.60;;;;;;5050534;28;20184;-67
2023/04/26 10:39:46;;;;;;;12.13;2.40;;;19.60;80.40;;;;;;5051743;28;20188;-65
2023/04/26 10:42:23;;;;;;;8.93;1.90;;;19.70;79.80;;;;;;5051650;28;20542;-67
2023/04/26 10:44:52;;;;;;;9.77;2.23;;;19.80;78.90;;;;;;5050054;28;20196;-66
2023/04/26 10:47:35;;;;;;;8.90;2.37;;;19.90;78.60;;;;;;5051347;28;20178;-67
2023/04/26 10:50:06;;;;;;;17.27;2.17;;;19.90;78.30;;;;;;5048045;28;20233;-67
2023/04/26 10:52:34;;;;;;;10.60;1.97;;;20.00;78.10;;;;;;5049544;28;20349;-65
2023/04/26 10:55:02;;;;;;;7.87;2.10;;;20.00;78.10;;;;;;5050321;28;20207;-66
2023/04/26 10:57:51;;;;;;;8.80;2.00;;;20.00;78.10;;;;;;5045053;28;20196;-67
2023/04/26 11:00:24;;;;;;;6.60;1.97;;;20.00;78.30;;;;;;5040660;28;20516;-66
2023/04/26 11:02:57;;;;;;;6.97;1.50;;;20.00;78.60;;;;;;5045644;28;20650;-66
2023/04/26 11:05:54;;;;;;;10.60;2.30;;;19.90;78.90;;;;;;5051057;28;20654;-68
2023/04/26 11:08:25;;;;;;;10.13;2.20;;;19.80;79.10;;;;;;5052028;28;20190;-67
2023/04/26 11:11:02;;;;;;;12.57;2.00;;;19.80;79.60;;;;;;5049096;28;20196;-68
2023/04/26 11:13:34;;;;;;;11.80;2.27;;;19.80;79.60;;;;;;5051441;28;20219;-68
2023/04/26 11:16:03;;;;;;;10.47;2.07;;;19.70;79.90;;;;;;5051675;28;20194;-68
2023/04/26 11:18:32;;;;;;;10.63;1.93;;;19.70;79.80;;;;;;5046769;28;20658;-68
2023/04/26 11:20:59;;;;;;;11.13;2.10;;;19.60;79.90;;;;;;5051003;28;20180;-67
2023/04/26 11:23:29;;;;;;;7.70;1.90;;;19.70;80.00;;;;;;5044822;28;20697;-68
2023/04/26 11:26:03;;;;;;;7.73;2.00;;;19.70;79.90;;;;;;5052444;28;20180;-68
2023/04/26 11:28:35;;;;;;;11.10;2.67;;;19.70;79.90;;;;;;5047418;28;20179;-67
2023/04/26 11:31:06;;;;;;;7.47;1.90;;;19.60;80.10;;;;;;5052713;28;20184;-68
2023/04/26 11:33:34;;;;;;;11.07;2.00;;;19.60;80.40;;;;;;5051464;28;20198;-67
2023/04/26 11:36:01;;;;;;;10.73;2.23;;;19.50;80.70;;;;;;5050436;28;20183;-68
2023/04/26 11:38:29;;;;;;;14.67;2.20;;;19.60;80.90;;;;;;5046736;28;20669;-67
2023/04/26 11:41:03;;;;;;;9.83;2.30;;;19.60;81.00;;;;;;5050046;28;20272;-68
2023/04/26 11:43:38;;;;;;;13.70;1.83;;;19.70;80.80;;;;;;5048680;28;20175;-67
2023/04/26 11:46:07;;;;;;;13.33;2.63;;;19.60;80.80;;;;;;5050978;28;20203;-67
2023/04/26 11:48:36;;;;;;;12.33;2.30;;;19.50;81.00;;;;;;5052122;28;20654;-67
2023/04/26 11:51:06;;;;;;;15.83;2.47;;;19.50;81.10;;;;;;5052920;28;20510;-67
2023/04/26 11:53:40;;;;;;;9.33;2.00;;;19.40;81.10;;;;;;5047955;28;20662;-68
2023/04/26 11:56:21;;;;;;;11.57;2.30;;;19.30;81.20;;;;;;5049638;28;20604;-67
2023/04/26 11:58:51;;;;;;;11.40;2.43;;;19.30;81.20;;;;;;5047193;28;20273;-68
2023/04/26 12:01:26;;;;;;;11.30;1.93;;;19.20;81.10;;;;;;5051360;28;20665;-67
2023/04/26 12:03:56;;;;;;;7.23;1.97;;;19.10;81.20;;;;;;5051214;28;20527;-68
2023/04/26 12:06:31;;;;;;;11.47;2.23;;;19.10;80.80;;;;;;5043318;28;20180;-67
2023/04/26 12:09:01;;;;;;;8.60;2.13;;;19.00;80.30;;;;;;5051961;28;20215;-66
2023/04/26 12:11:29;;;;;;;9.37;1.73;;;18.90;80.40;;;;;;5050938;28;20254;-67
2023/04/26 12:13:58;;;;;;;8.00;1.70;;;18.90;80.50;;;;;;5049543;28;20180;-68
2023/04/26 12:16:25;;;;;;;13.23;2.00;;;18.80;80.40;;;;;;5050147;28;20184;-67
2023/04/26 12:18:55;;;;;;;14.67;2.27;;;18.80;80.30;;;;;;5047704;28;20203;-67
2023/04/26 12:21:23;;;;;;;9.03;1.80;;;18.80;79.00;;;;;;5050417;28;20544;-66
2023/04/26 12:23:51;;;;;;;10.43;2.23;;;18.90;78.20;;;;;;5048058;28;20199;-67
2023/04/26 12:26:19;;;;;;;13.63;2.07;;;18.90;78.00;;;;;;5053301;28;20250;-68
2023/04/26 12:28:46;;;;;;;9.40;1.70;;;19.00;77.10;;;;;;5051042;28;20238;-68
2023/04/26 12:31:13;;;;;;;14.83;2.20;;;19.00;76.70;;;;;;5050902;28;20180;-67
2023/04/26 12:33:41;;;;;;;15.93;2.47;;;19.10;76.40;;;;;;5051274;28;20183;-67
2023/04/26 12:36:12;;;;;;;13.83;2.53;;;19.10;76.10;;;;;;5051130;28;20187;-67
2023/04/26 12:38:40;;;;;;;9.63;2.27;;;19.10;75.90;;;;;;5046041;28;20665;-67
2023/04/26 12:41:07;;;;;;;10.07;2.10;;;19.10;75.60;;;;;;5050263;28;20224;-66
2023/04/26 12:43:35;;;;;;;11.10;2.23;;;19.10;75.60;;;;;;5050293;28;20224;-68
2023/04/26 12:46:02;;;;;;;8.07;1.77;;;19.10;75.60;;;;;;5047412;28;20202;-66
2023/04/26 12:48:30;;;;;;;10.87;2.00;;;19.10;75.30;;;;;;5051159;28;20199;-68
2023/04/26 12:50:57;;;;;;;7.53;1.97;;;19.10;75.10;;;;;;5048096;28;20195;-66